sensor_id;sensor_type;location;lat;lon;timestamp;P1;durP1;ratioP1;P2;durP2;ratioP2
76795;SDS011;65745;50.278;18.192;2024-01-30T00:00:02;8.60;;;5.30;;
76795;SDS011;65745;50.278;18.192;2024-01-30T00:02:37;8.00;;;5.70;;
76795;SDS011;65745;50.278;18.192;2024-01-30T00:05:09;10.40;;;5.80;;
76795;SDS011;65745;50.278;18.192;2024-01-30T00:07:41;8.00;;;4.80;;
76795;SDS011;65745;50.278;18.192;2024-01-30T00:10:13;8.00;;;5.40;;
76795;SDS011;65745;50.278;18.192;2024-01-30T00:12:46;7.90;;;6.30;;
76795;SDS011;65745;50.278;18.192;2024-01-30T00:15:18;7.40;;;5.30;;
76795;SDS011;65745;50.278;18.192;2024-01-30T00:17:50;8.80;;;5.80;;
76795;SDS011;65745;50.278;18.192;2024-01-30T00:20:22;8.20;;;5.20;;
76795;SDS011;65745;50.278;18.192;2024-01-30T00:22:54;9.00;;;5.60;;
76795;SDS011;65745;50.278;18.192;2024-01-30T00:25:26;8.80;;;5.40;;
76795;SDS011;65745;50.278;18.192;2024-01-30T00:27:59;9.80;;;5.80;;
76795;SDS011;65745;50.278;18.192;2024-01-30T00:30:31;9.50;;;6.30;;
76795;SDS011;65745;50.278;18.192;2024-01-30T00:33:03;7.70;;;6.00;;
76795;SDS011;65745;50.278;18.192;2024-01-30T00:35:37;9.90;;;6.00;;
76795;SDS011;65745;50.278;18.192;2024-01-30T00:38:09;10.40;;;6.50;;
76795;SDS011;65745;50.278;18.192;2024-01-30T00:40:41;9.50;;;7.50;;
76795;SDS011;65745;50.278;18.192;2024-01-30T00:43:14;8.40;;;6.40;;
76795;SDS011;65745;50.278;18.192;2024-01-30T00:45:46;8.10;;;6.40;;
76795;SDS011;65745;50.278;18.192;2024-01-30T00:48:19;13.50;;;7.50;;
76795;SDS011;65745;50.278;18.192;2024-01-30T00:50:52;8.50;;;5.80;;
76795;SDS011;65745;50.278;18.192;2024-01-30T00:53:24;9.70;;;7.20;;
76795;SDS011;65745;50.278;18.192;2024-01-30T00:55:57;11.90;;;6.80;;
76795;SDS011;65745;50.278;18.192;2024-01-30T00:58:29;11.00;;;6.70;;
76795;SDS011;65745;50.278;18.192;2024-01-30T01:01:01;9.50;;;7.10;;
76795;SDS011;65745;50.278;18.192;2024-01-30T01:03:33;10.60;;;7.40;;
76795;SDS011;65745;50.278;18.192;2024-01-30T01:06:06;11.50;;;7.80;;
76795;SDS011;65745;50.278;18.192;2024-01-30T01:08:38;8.20;;;6.20;;
76795;SDS011;65745;50.278;18.192;2024-01-30T01:11:10;10.90;;;8.10;;
76795;SDS011;65745;50.278;18.192;2024-01-30T01:13:42;12.70;;;8.10;;
76795;SDS011;65745;50.278;18.192;2024-01-30T01:16:14;11.10;;;7.10;;
76795;SDS011;65745;50.278;18.192;2024-01-30T01:18:47;12.40;;;8.00;;
76795;SDS011;65745;50.278;18.192;2024-01-30T01:21:19;10.40;;;7.20;;
76795;SDS011;65745;50.278;18.192;2024-01-30T01:23:52;13.00;;;7.60;;
76795;SDS011;65745;50.278;18.192;2024-01-30T01:26:25;11.70;;;8.20;;
76795;SDS011;65745;50.278;18.192;2024-01-30T01:28:57;11.80;;;8.20;;
76795;SDS011;65745;50.278;18.192;2024-01-30T01:31:29;12.70;;;8.10;;
76795;SDS011;65745;50.278;18.192;2024-01-30T01:34:01;12.30;;;8.00;;
76795;SDS011;65745;50.278;18.192;2024-01-30T01:36:34;18.60;;;9.40;;
76795;SDS011;65745;50.278;18.192;2024-01-30T01:39:06;12.00;;;8.00;;
76795;SDS011;65745;50.278;18.192;2024-01-30T01:41:39;8.90;;;6.80;;
76795;SDS011;65745;50.278;18.192;2024-01-30T01:44:12;12.60;;;6.80;;
76795;SDS011;65745;50.278;18.192;2024-01-30T01:46:44;9.50;;;6.50;;
76795;SDS011;65745;50.278;18.192;2024-01-30T01:49:16;11.00;;;8.30;;
76795;SDS011;65745;50.278;18.192;2024-01-30T01:51:49;10.60;;;8.70;;
76795;SDS011;65745;50.278;18.192;2024-01-30T01:56:57;10.50;;;8.20;;
76795;SDS011;65745;50.278;18.192;2024-01-30T01:59:29;15.30;;;9.20;;
76795;SDS011;65745;50.278;18.192;2024-01-30T02:02:02;11.10;;;8.00;;
76795;SDS011;65745;50.278;18.192;2024-01-30T02:04:36;11.90;;;7.30;;
76795;SDS011;65745;50.278;18.192;2024-01-30T02:07:09;14.00;;;8.30;;
76795;SDS011;65745;50.278;18.192;2024-01-30T02:09:41;11.10;;;8.20;;
76795;SDS011;65745;50.278;18.192;2024-01-30T02:12:14;11.50;;;8.60;;
76795;SDS011;65745;50.278;18.192;2024-01-30T02:14:46;11.80;;;8.70;;
76795;SDS011;65745;50.278;18.192;2024-01-30T02:17:19;10.90;;;8.00;;
76795;SDS011;65745;50.278;18.192;2024-01-30T02:19:53;13.00;;;9.20;;
76795;SDS011;65745;50.278;18.192;2024-01-30T02:22:25;18.50;;;9.60;;
76795;SDS011;65745;50.278;18.192;2024-01-30T02:24:58;13.40;;;8.90;;
76795;SDS011;65745;50.278;18.192;2024-01-30T02:27:30;16.80;;;8.80;;
76795;SDS011;65745;50.278;18.192;2024-01-30T02:30:02;11.80;;;8.50;;
76795;SDS011;65745;50.278;18.192;2024-01-30T02:32:36;13.00;;;8.20;;
76795;SDS011;65745;50.278;18.192;2024-01-30T02:35:09;15.20;;;8.90;;
76795;SDS011;65745;50.278;18.192;2024-01-30T02:37:41;13.70;;;8.40;;
76795;SDS011;65745;50.278;18.192;2024-01-30T02:40:13;9.40;;;6.90;;
76795;SDS011;65745;50.278;18.192;2024-01-30T02:42:46;14.30;;;8.70;;
76795;SDS011;65745;50.278;18.192;2024-01-30T02:45:18;13.30;;;8.40;;
76795;SDS011;65745;50.278;18.192;2024-01-30T02:47:50;14.80;;;9.40;;
76795;SDS011;65745;50.278;18.192;2024-01-30T02:50:22;12.50;;;9.10;;
76795;SDS011;65745;50.278;18.192;2024-01-30T02:52:54;13.90;;;8.90;;
76795;SDS011;65745;50.278;18.192;2024-01-30T02:55:27;14.30;;;9.10;;
76795;SDS011;65745;50.278;18.192;2024-01-30T02:57:59;12.80;;;8.20;;
76795;SDS011;65745;50.278;18.192;2024-01-30T03:00:31;11.20;;;8.00;;
76795;SDS011;65745;50.278;18.192;2024-01-30T03:03:04;12.40;;;7.80;;
76795;SDS011;65745;50.278;18.192;2024-01-30T03:05:36;13.90;;;8.90;;
76795;SDS011;65745;50.278;18.192;2024-01-30T03:08:08;13.40;;;7.60;;
76795;SDS011;65745;50.278;18.192;2024-01-30T03:10:41;13.60;;;8.40;;
76795;SDS011;65745;50.278;18.192;2024-01-30T03:13:13;12.10;;;7.20;;
76795;SDS011;65745;50.278;18.192;2024-01-30T03:15:45;13.30;;;8.70;;
76795;SDS011;65745;50.278;18.192;2024-01-30T03:18:18;13.70;;;8.10;;
76795;SDS011;65745;50.278;18.192;2024-01-30T03:20:50;12.70;;;8.50;;
76795;SDS011;65745;50.278;18.192;2024-01-30T03:23:23;11.30;;;7.10;;
76795;SDS011;65745;50.278;18.192;2024-01-30T03:25:55;14.90;;;8.40;;
76795;SDS011;65745;50.278;18.192;2024-01-30T03:28:27;12.20;;;8.40;;
76795;SDS011;65745;50.278;18.192;2024-01-30T03:30:59;14.50;;;7.90;;
76795;SDS011;65745;50.278;18.192;2024-01-30T03:33:31;13.50;;;8.70;;
76795;SDS011;65745;50.278;18.192;2024-01-30T03:36:04;12.50;;;7.80;;
76795;SDS011;65745;50.278;18.192;2024-01-30T03:38:37;14.70;;;8.20;;
76795;SDS011;65745;50.278;18.192;2024-01-30T03:41:09;11.40;;;8.10;;
76795;SDS011;65745;50.278;18.192;2024-01-30T03:43:41;12.60;;;8.00;;
76795;SDS011;65745;50.278;18.192;2024-01-30T03:46:13;10.20;;;7.00;;
76795;SDS011;65745;50.278;18.192;2024-01-30T03:48:46;11.50;;;7.00;;
76795;SDS011;65745;50.278;18.192;2024-01-30T03:51:18;12.10;;;8.30;;
76795;SDS011;65745;50.278;18.192;2024-01-30T03:53:50;12.30;;;8.10;;
76795;SDS011;65745;50.278;18.192;2024-01-30T03:56:22;11.90;;;7.70;;
76795;SDS011;65745;50.278;18.192;2024-01-30T03:58:55;11.30;;;7.50;;
76795;SDS011;65745;50.278;18.192;2024-01-30T04:01:28;8.70;;;6.70;;
76795;SDS011;65745;50.278;18.192;2024-01-30T04:04:01;10.00;;;6.70;;
76795;SDS011;65745;50.278;18.192;2024-01-30T04:06:33;11.40;;;7.60;;
76795;SDS011;65745;50.278;18.192;2024-01-30T04:09:07;11.80;;;8.30;;
76795;SDS011;65745;50.278;18.192;2024-01-30T04:11:40;11.40;;;7.90;;
76795;SDS011;65745;50.278;18.192;2024-01-30T04:14:12;9.90;;;6.80;;
76795;SDS011;65745;50.278;18.192;2024-01-30T04:16:44;9.40;;;6.70;;
76795;SDS011;65745;50.278;18.192;2024-01-30T04:19:17;13.20;;;8.50;;
76795;SDS011;65745;50.278;18.192;2024-01-30T04:21:49;11.10;;;7.50;;
76795;SDS011;65745;50.278;18.192;2024-01-30T04:24:21;12.80;;;7.70;;
76795;SDS011;65745;50.278;18.192;2024-01-30T04:26:59;12.00;;;7.90;;
76795;SDS011;65745;50.278;18.192;2024-01-30T04:29:31;12.20;;;7.50;;
76795;SDS011;65745;50.278;18.192;2024-01-30T04:32:04;12.90;;;8.30;;
76795;SDS011;65745;50.278;18.192;2024-01-30T04:34:37;15.80;;;8.10;;
76795;SDS011;65745;50.278;18.192;2024-01-30T04:37:10;12.80;;;7.50;;
76795;SDS011;65745;50.278;18.192;2024-01-30T04:39:42;10.30;;;7.70;;
76795;SDS011;65745;50.278;18.192;2024-01-30T04:42:15;11.00;;;7.80;;
76795;SDS011;65745;50.278;18.192;2024-01-30T04:44:47;11.70;;;8.30;;
76795;SDS011;65745;50.278;18.192;2024-01-30T04:47:19;13.00;;;8.20;;
76795;SDS011;65745;50.278;18.192;2024-01-30T04:49:51;9.30;;;6.10;;
76795;SDS011;65745;50.278;18.192;2024-01-30T04:52:23;11.30;;;8.20;;
76795;SDS011;65745;50.278;18.192;2024-01-30T04:54:55;9.50;;;6.40;;
76795;SDS011;65745;50.278;18.192;2024-01-30T04:57:28;11.60;;;8.10;;
76795;SDS011;65745;50.278;18.192;2024-01-30T05:00:02;9.50;;;6.70;;
76795;SDS011;65745;50.278;18.192;2024-01-30T05:02:36;11.40;;;8.20;;
76795;SDS011;65745;50.278;18.192;2024-01-30T05:05:08;11.80;;;8.10;;
76795;SDS011;65745;50.278;18.192;2024-01-30T05:07:41;11.60;;;7.60;;
76795;SDS011;65745;50.278;18.192;2024-01-30T05:10:13;12.40;;;9.00;;
76795;SDS011;65745;50.278;18.192;2024-01-30T05:12:45;12.50;;;8.30;;
76795;SDS011;65745;50.278;18.192;2024-01-30T05:15:18;14.50;;;7.70;;
76795;SDS011;65745;50.278;18.192;2024-01-30T05:17:50;13.50;;;7.70;;
76795;SDS011;65745;50.278;18.192;2024-01-30T05:20:23;14.30;;;8.80;;
76795;SDS011;65745;50.278;18.192;2024-01-30T05:22:57;13.10;;;8.60;;
76795;SDS011;65745;50.278;18.192;2024-01-30T05:25:29;11.50;;;7.30;;
76795;SDS011;65745;50.278;18.192;2024-01-30T05:28:01;12.90;;;8.40;;
76795;SDS011;65745;50.278;18.192;2024-01-30T05:30:34;11.70;;;8.30;;
76795;SDS011;65745;50.278;18.192;2024-01-30T05:33:06;12.80;;;8.00;;
76795;SDS011;65745;50.278;18.192;2024-01-30T05:35:39;11.70;;;7.60;;
76795;SDS011;65745;50.278;18.192;2024-01-30T05:38:11;11.10;;;7.30;;
76795;SDS011;65745;50.278;18.192;2024-01-30T05:40:43;10.30;;;8.00;;
76795;SDS011;65745;50.278;18.192;2024-01-30T05:43:15;10.60;;;7.50;;
76795;SDS011;65745;50.278;18.192;2024-01-30T05:45:48;13.70;;;8.30;;
76795;SDS011;65745;50.278;18.192;2024-01-30T05:48:20;15.60;;;9.60;;
76795;SDS011;65745;50.278;18.192;2024-01-30T05:50:52;14.40;;;8.50;;
76795;SDS011;65745;50.278;18.192;2024-01-30T05:53:25;11.40;;;7.20;;
76795;SDS011;65745;50.278;18.192;2024-01-30T05:55:58;14.60;;;9.30;;
76795;SDS011;65745;50.278;18.192;2024-01-30T05:58:30;13.00;;;9.10;;
76795;SDS011;65745;50.278;18.192;2024-01-30T06:01:02;14.00;;;7.20;;
76795;SDS011;65745;50.278;18.192;2024-01-30T06:03:36;10.90;;;7.80;;
76795;SDS011;65745;50.278;18.192;2024-01-30T06:06:09;13.10;;;8.50;;
76795;SDS011;65745;50.278;18.192;2024-01-30T06:08:42;13.60;;;8.50;;
76795;SDS011;65745;50.278;18.192;2024-01-30T06:11:14;14.60;;;8.70;;
76795;SDS011;65745;50.278;18.192;2024-01-30T06:13:46;11.50;;;8.30;;
76795;SDS011;65745;50.278;18.192;2024-01-30T06:16:18;10.20;;;6.90;;
76795;SDS011;65745;50.278;18.192;2024-01-30T06:18:52;11.90;;;7.80;;
76795;SDS011;65745;50.278;18.192;2024-01-30T06:21:24;13.00;;;8.80;;
76795;SDS011;65745;50.278;18.192;2024-01-30T06:23:56;12.30;;;9.10;;
76795;SDS011;65745;50.278;18.192;2024-01-30T06:26:29;14.40;;;9.20;;
76795;SDS011;65745;50.278;18.192;2024-01-30T06:29:01;14.30;;;9.60;;
76795;SDS011;65745;50.278;18.192;2024-01-30T06:31:34;11.40;;;7.90;;
76795;SDS011;65745;50.278;18.192;2024-01-30T06:34:11;11.80;;;8.80;;
76795;SDS011;65745;50.278;18.192;2024-01-30T06:36:44;11.20;;;7.20;;
76795;SDS011;65745;50.278;18.192;2024-01-30T06:39:16;13.60;;;8.00;;
76795;SDS011;65745;50.278;18.192;2024-01-30T06:41:48;15.90;;;8.90;;
76795;SDS011;65745;50.278;18.192;2024-01-30T06:44:20;14.00;;;8.70;;
76795;SDS011;65745;50.278;18.192;2024-01-30T06:46:52;18.50;;;9.60;;
76795;SDS011;65745;50.278;18.192;2024-01-30T06:49:24;11.50;;;7.60;;
76795;SDS011;65745;50.278;18.192;2024-01-30T06:51:57;17.80;;;9.80;;
76795;SDS011;65745;50.278;18.192;2024-01-30T06:54:29;12.80;;;8.70;;
76795;SDS011;65745;50.278;18.192;2024-01-30T06:57:02;20.70;;;11.80;;
76795;SDS011;65745;50.278;18.192;2024-01-30T06:59:38;15.00;;;10.00;;
76795;SDS011;65745;50.278;18.192;2024-01-30T07:02:12;13.30;;;8.20;;
76795;SDS011;65745;50.278;18.192;2024-01-30T07:04:45;15.90;;;9.50;;
76795;SDS011;65745;50.278;18.192;2024-01-30T07:07:17;48.00;;;20.20;;
76795;SDS011;65745;50.278;18.192;2024-01-30T07:09:50;22.20;;;12.40;;
76795;SDS011;65745;50.278;18.192;2024-01-30T07:12:26;37.40;;;21.40;;
76795;SDS011;65745;50.278;18.192;2024-01-30T07:14:58;26.30;;;13.60;;
76795;SDS011;65745;50.278;18.192;2024-01-30T07:17:32;19.80;;;12.30;;
76795;SDS011;65745;50.278;18.192;2024-01-30T07:20:05;29.80;;;16.70;;
76795;SDS011;65745;50.278;18.192;2024-01-30T07:22:43;19.10;;;12.40;;
76795;SDS011;65745;50.278;18.192;2024-01-30T07:25:15;18.50;;;11.60;;
76795;SDS011;65745;50.278;18.192;2024-01-30T07:27:47;22.90;;;16.00;;
76795;SDS011;65745;50.278;18.192;2024-01-30T07:30:19;17.50;;;11.10;;
76795;SDS011;65745;50.278;18.192;2024-01-30T07:32:52;19.90;;;12.70;;
76795;SDS011;65745;50.278;18.192;2024-01-30T07:35:24;16.50;;;9.80;;
76795;SDS011;65745;50.278;18.192;2024-01-30T07:37:57;17.60;;;12.30;;
76795;SDS011;65745;50.278;18.192;2024-01-30T07:40:29;21.10;;;14.20;;
76795;SDS011;65745;50.278;18.192;2024-01-30T07:43:02;15.10;;;10.20;;
76795;SDS011;65745;50.278;18.192;2024-01-30T07:45:34;16.50;;;11.20;;
76795;SDS011;65745;50.278;18.192;2024-01-30T07:48:07;17.30;;;10.90;;
76795;SDS011;65745;50.278;18.192;2024-01-30T07:50:40;15.00;;;9.40;;
76795;SDS011;65745;50.278;18.192;2024-01-30T07:53:12;16.70;;;10.50;;
76795;SDS011;65745;50.278;18.192;2024-01-30T07:55:45;13.60;;;9.90;;
76795;SDS011;65745;50.278;18.192;2024-01-30T07:58:17;15.40;;;10.20;;
76795;SDS011;65745;50.278;18.192;2024-01-30T08:00:49;16.80;;;11.80;;
76795;SDS011;65745;50.278;18.192;2024-01-30T08:03:22;17.30;;;10.90;;
76795;SDS011;65745;50.278;18.192;2024-01-30T08:05:55;16.70;;;10.30;;
76795;SDS011;65745;50.278;18.192;2024-01-30T08:08:27;14.60;;;10.20;;
76795;SDS011;65745;50.278;18.192;2024-01-30T08:10:59;13.50;;;9.30;;
76795;SDS011;65745;50.278;18.192;2024-01-30T08:13:31;17.60;;;11.00;;
76795;SDS011;65745;50.278;18.192;2024-01-30T08:16:04;17.80;;;10.80;;
76795;SDS011;65745;50.278;18.192;2024-01-30T08:18:40;17.00;;;10.10;;
76795;SDS011;65745;50.278;18.192;2024-01-30T08:21:13;18.70;;;11.90;;
76795;SDS011;65745;50.278;18.192;2024-01-30T08:23:45;16.00;;;10.40;;
76795;SDS011;65745;50.278;18.192;2024-01-30T08:26:17;16.80;;;9.70;;
76795;SDS011;65745;50.278;18.192;2024-01-30T08:28:49;14.20;;;9.70;;
76795;SDS011;65745;50.278;18.192;2024-01-30T08:31:23;15.40;;;10.00;;
76795;SDS011;65745;50.278;18.192;2024-01-30T08:33:55;18.70;;;10.90;;
76795;SDS011;65745;50.278;18.192;2024-01-30T08:36:28;16.70;;;10.20;;
76795;SDS011;65745;50.278;18.192;2024-01-30T08:39:00;16.50;;;9.70;;
76795;SDS011;65745;50.278;18.192;2024-01-30T08:41:34;14.10;;;9.60;;
76795;SDS011;65745;50.278;18.192;2024-01-30T08:44:07;14.00;;;8.70;;
76795;SDS011;65745;50.278;18.192;2024-01-30T08:46:40;21.60;;;10.80;;
76795;SDS011;65745;50.278;18.192;2024-01-30T08:49:12;16.60;;;10.00;;
76795;SDS011;65745;50.278;18.192;2024-01-30T08:51:47;14.20;;;10.10;;
76795;SDS011;65745;50.278;18.192;2024-01-30T08:54:19;15.80;;;9.70;;
76795;SDS011;65745;50.278;18.192;2024-01-30T08:56:51;13.80;;;8.90;;
76795;SDS011;65745;50.278;18.192;2024-01-30T08:59:25;15.00;;;9.70;;
76795;SDS011;65745;50.278;18.192;2024-01-30T09:01:57;14.40;;;10.50;;
76795;SDS011;65745;50.278;18.192;2024-01-30T09:04:40;15.50;;;9.40;;
76795;SDS011;65745;50.278;18.192;2024-01-30T09:07:13;15.90;;;10.90;;
76795;SDS011;65745;50.278;18.192;2024-01-30T09:09:45;13.50;;;9.60;;
76795;SDS011;65745;50.278;18.192;2024-01-30T09:12:18;13.70;;;8.90;;
76795;SDS011;65745;50.278;18.192;2024-01-30T09:14:50;14.90;;;9.90;;
76795;SDS011;65745;50.278;18.192;2024-01-30T09:17:22;14.80;;;9.80;;
76795;SDS011;65745;50.278;18.192;2024-01-30T09:19:54;15.60;;;10.20;;
76795;SDS011;65745;50.278;18.192;2024-01-30T09:22:27;13.50;;;9.60;;
76795;SDS011;65745;50.278;18.192;2024-01-30T09:24:59;14.80;;;9.90;;
76795;SDS011;65745;50.278;18.192;2024-01-30T09:27:31;14.10;;;8.70;;
76795;SDS011;65745;50.278;18.192;2024-01-30T09:30:04;12.00;;;8.10;;
76795;SDS011;65745;50.278;18.192;2024-01-30T09:32:39;13.90;;;9.60;;
76795;SDS011;65745;50.278;18.192;2024-01-30T09:35:11;12.90;;;9.00;;
76795;SDS011;65745;50.278;18.192;2024-01-30T09:37:44;14.80;;;9.70;;
76795;SDS011;65745;50.278;18.192;2024-01-30T09:40:17;13.80;;;8.60;;
76795;SDS011;65745;50.278;18.192;2024-01-30T09:42:50;13.00;;;8.00;;
76795;SDS011;65745;50.278;18.192;2024-01-30T09:45:23;13.40;;;8.20;;
76795;SDS011;65745;50.278;18.192;2024-01-30T09:47:58;14.80;;;9.10;;
76795;SDS011;65745;50.278;18.192;2024-01-30T09:50:32;12.50;;;8.60;;
76795;SDS011;65745;50.278;18.192;2024-01-30T09:53:06;17.30;;;9.30;;
76795;SDS011;65745;50.278;18.192;2024-01-30T09:55:40;13.40;;;8.20;;
76795;SDS011;65745;50.278;18.192;2024-01-30T09:58:16;12.30;;;8.90;;
76795;SDS011;65745;50.278;18.192;2024-01-30T10:00:49;9.50;;;7.10;;
76795;SDS011;65745;50.278;18.192;2024-01-30T10:03:25;9.50;;;6.80;;
76795;SDS011;65745;50.278;18.192;2024-01-30T10:05:58;9.50;;;7.00;;
76795;SDS011;65745;50.278;18.192;2024-01-30T10:08:31;11.30;;;7.80;;
76795;SDS011;65745;50.278;18.192;2024-01-30T10:11:03;12.40;;;7.40;;
76795;SDS011;65745;50.278;18.192;2024-01-30T10:13:36;10.60;;;7.50;;
76795;SDS011;65745;50.278;18.192;2024-01-30T10:16:09;9.40;;;6.70;;
76795;SDS011;65745;50.278;18.192;2024-01-30T10:18:43;9.70;;;7.00;;
76795;SDS011;65745;50.278;18.192;2024-01-30T10:21:17;9.80;;;7.30;;
76795;SDS011;65745;50.278;18.192;2024-01-30T10:23:50;10.00;;;6.80;;
76795;SDS011;65745;50.278;18.192;2024-01-30T10:26:23;10.70;;;7.20;;
76795;SDS011;65745;50.278;18.192;2024-01-30T10:28:55;12.30;;;7.10;;
76795;SDS011;65745;50.278;18.192;2024-01-30T10:31:27;10.30;;;7.80;;
76795;SDS011;65745;50.278;18.192;2024-01-30T10:33:59;10.30;;;6.90;;
76795;SDS011;65745;50.278;18.192;2024-01-30T10:36:46;12.60;;;8.20;;
76795;SDS011;65745;50.278;18.192;2024-01-30T10:39:20;10.10;;;7.10;;
76795;SDS011;65745;50.278;18.192;2024-01-30T10:41:54;9.90;;;7.20;;
76795;SDS011;65745;50.278;18.192;2024-01-30T10:44:36;12.80;;;7.40;;
76795;SDS011;65745;50.278;18.192;2024-01-30T10:47:14;10.90;;;7.40;;
76795;SDS011;65745;50.278;18.192;2024-01-30T10:49:56;9.70;;;6.60;;
76795;SDS011;65745;50.278;18.192;2024-01-30T10:52:30;11.30;;;7.30;;
76795;SDS011;65745;50.278;18.192;2024-01-30T10:55:04;11.50;;;6.60;;
76795;SDS011;65745;50.278;18.192;2024-01-30T10:57:37;8.70;;;6.40;;
76795;SDS011;65745;50.278;18.192;2024-01-30T11:00:10;10.40;;;7.10;;
76795;SDS011;65745;50.278;18.192;2024-01-30T11:02:45;10.70;;;7.80;;
76795;SDS011;65745;50.278;18.192;2024-01-30T11:05:24;11.20;;;7.50;;
76795;SDS011;65745;50.278;18.192;2024-01-30T11:08:11;10.70;;;7.90;;
76795;SDS011;65745;50.278;18.192;2024-01-30T11:10:47;10.50;;;7.50;;
76795;SDS011;65745;50.278;18.192;2024-01-30T11:13:20;9.30;;;7.70;;
76795;SDS011;65745;50.278;18.192;2024-01-30T11:15:52;8.20;;;7.00;;
76795;SDS011;65745;50.278;18.192;2024-01-30T11:18:25;10.30;;;7.30;;
76795;SDS011;65745;50.278;18.192;2024-01-30T11:20:59;9.70;;;6.90;;
76795;SDS011;65745;50.278;18.192;2024-01-30T11:23:32;7.80;;;6.30;;
76795;SDS011;65745;50.278;18.192;2024-01-30T11:26:07;8.60;;;6.50;;
76795;SDS011;65745;50.278;18.192;2024-01-30T11:28:42;10.80;;;7.20;;
76795;SDS011;65745;50.278;18.192;2024-01-30T11:31:22;9.10;;;6.10;;
76795;SDS011;65745;50.278;18.192;2024-01-30T11:33:55;9.90;;;6.70;;
76795;SDS011;65745;50.278;18.192;2024-01-30T11:36:28;8.90;;;6.50;;
76795;SDS011;65745;50.278;18.192;2024-01-30T11:39:03;9.50;;;6.30;;
76795;SDS011;65745;50.278;18.192;2024-01-30T11:41:37;10.30;;;7.50;;
76795;SDS011;65745;50.278;18.192;2024-01-30T11:44:11;9.40;;;6.90;;
76795;SDS011;65745;50.278;18.192;2024-01-30T11:46:44;11.50;;;8.00;;
76795;SDS011;65745;50.278;18.192;2024-01-30T11:49:17;8.30;;;6.50;;
76795;SDS011;65745;50.278;18.192;2024-01-30T11:51:50;8.10;;;6.10;;
76795;SDS011;65745;50.278;18.192;2024-01-30T11:54:25;9.60;;;6.40;;
76795;SDS011;65745;50.278;18.192;2024-01-30T11:56:59;8.10;;;6.20;;
76795;SDS011;65745;50.278;18.192;2024-01-30T11:59:32;8.60;;;7.60;;
76795;SDS011;65745;50.278;18.192;2024-01-30T12:02:05;8.90;;;5.70;;
76795;SDS011;65745;50.278;18.192;2024-01-30T12:04:37;7.40;;;6.10;;
76795;SDS011;65745;50.278;18.192;2024-01-30T12:07:09;11.80;;;7.40;;
76795;SDS011;65745;50.278;18.192;2024-01-30T12:09:42;7.20;;;5.70;;
76795;SDS011;65745;50.278;18.192;2024-01-30T12:12:22;10.10;;;7.10;;
76795;SDS011;65745;50.278;18.192;2024-01-30T12:14:56;9.50;;;7.10;;
76795;SDS011;65745;50.278;18.192;2024-01-30T12:17:29;7.80;;;5.70;;
76795;SDS011;65745;50.278;18.192;2024-01-30T12:20:04;8.70;;;6.20;;
76795;SDS011;65745;50.278;18.192;2024-01-30T12:22:38;8.70;;;5.80;;
76795;SDS011;65745;50.278;18.192;2024-01-30T12:25:12;8.30;;;6.10;;
76795;SDS011;65745;50.278;18.192;2024-01-30T12:27:46;7.20;;;5.30;;
76795;SDS011;65745;50.278;18.192;2024-01-30T12:30:21;9.00;;;5.90;;
76795;SDS011;65745;50.278;18.192;2024-01-30T12:32:53;8.10;;;5.40;;
76795;SDS011;65745;50.278;18.192;2024-01-30T12:35:25;7.40;;;5.40;;
76795;SDS011;65745;50.278;18.192;2024-01-30T12:40:33;9.70;;;6.20;;
76795;SDS011;65745;50.278;18.192;2024-01-30T12:43:09;8.10;;;5.40;;
76795;SDS011;65745;50.278;18.192;2024-01-30T12:45:50;7.20;;;5.30;;
76795;SDS011;65745;50.278;18.192;2024-01-30T12:48:22;7.40;;;5.70;;
76795;SDS011;65745;50.278;18.192;2024-01-30T12:50:54;9.30;;;6.10;;
76795;SDS011;65745;50.278;18.192;2024-01-30T12:53:27;8.40;;;6.10;;
76795;SDS011;65745;50.278;18.192;2024-01-30T12:55:59;8.30;;;6.30;;
76795;SDS011;65745;50.278;18.192;2024-01-30T12:58:31;7.70;;;5.60;;
76795;SDS011;65745;50.278;18.192;2024-01-30T13:01:04;8.50;;;5.60;;
76795;SDS011;65745;50.278;18.192;2024-01-30T13:03:36;7.60;;;5.40;;
76795;SDS011;65745;50.278;18.192;2024-01-30T13:06:09;9.40;;;5.90;;
76795;SDS011;65745;50.278;18.192;2024-01-30T13:08:41;9.40;;;5.70;;
76795;SDS011;65745;50.278;18.192;2024-01-30T13:11:14;9.40;;;5.50;;
76795;SDS011;65745;50.278;18.192;2024-01-30T13:13:50;9.90;;;5.80;;
76795;SDS011;65745;50.278;18.192;2024-01-30T13:16:22;7.50;;;6.10;;
76795;SDS011;65745;50.278;18.192;2024-01-30T13:18:54;6.90;;;5.30;;
76795;SDS011;65745;50.278;18.192;2024-01-30T13:21:26;7.70;;;5.10;;
76795;SDS011;65745;50.278;18.192;2024-01-30T13:23:59;8.70;;;6.00;;
76795;SDS011;65745;50.278;18.192;2024-01-30T13:26:31;8.60;;;5.90;;
76795;SDS011;65745;50.278;18.192;2024-01-30T13:29:03;7.00;;;5.00;;
76795;SDS011;65745;50.278;18.192;2024-01-30T13:31:36;8.70;;;5.40;;
76795;SDS011;65745;50.278;18.192;2024-01-30T13:34:09;8.40;;;5.70;;
76795;SDS011;65745;50.278;18.192;2024-01-30T13:36:42;6.30;;;4.90;;
76795;SDS011;65745;50.278;18.192;2024-01-30T13:39:14;9.60;;;6.40;;
76795;SDS011;65745;50.278;18.192;2024-01-30T13:41:47;8.80;;;5.40;;
76795;SDS011;65745;50.278;18.192;2024-01-30T13:44:20;7.10;;;5.10;;
76795;SDS011;65745;50.278;18.192;2024-01-30T13:46:52;7.60;;;5.70;;
76795;SDS011;65745;50.278;18.192;2024-01-30T13:49:24;9.10;;;5.80;;
76795;SDS011;65745;50.278;18.192;2024-01-30T13:51:58;8.20;;;5.50;;
76795;SDS011;65745;50.278;18.192;2024-01-30T13:54:30;8.50;;;5.70;;
76795;SDS011;65745;50.278;18.192;2024-01-30T13:57:02;8.30;;;5.90;;
76795;SDS011;65745;50.278;18.192;2024-01-30T13:59:35;8.50;;;5.80;;
76795;SDS011;65745;50.278;18.192;2024-01-30T14:02:09;10.00;;;6.50;;
76795;SDS011;65745;50.278;18.192;2024-01-30T14:04:41;7.10;;;5.20;;
76795;SDS011;65745;50.278;18.192;2024-01-30T14:07:14;8.90;;;6.70;;
76795;SDS011;65745;50.278;18.192;2024-01-30T14:09:47;8.20;;;6.80;;
76795;SDS011;65745;50.278;18.192;2024-01-30T14:12:20;8.40;;;7.20;;
76795;SDS011;65745;50.278;18.192;2024-01-30T14:14:52;9.70;;;6.50;;
76795;SDS011;65745;50.278;18.192;2024-01-30T14:17:24;8.30;;;6.40;;
76795;SDS011;65745;50.278;18.192;2024-01-30T14:19:56;10.20;;;7.20;;
76795;SDS011;65745;50.278;18.192;2024-01-30T14:22:29;8.50;;;6.70;;
76795;SDS011;65745;50.278;18.192;2024-01-30T14:25:01;11.60;;;7.50;;
76795;SDS011;65745;50.278;18.192;2024-01-30T14:27:34;9.10;;;7.10;;
76795;SDS011;65745;50.278;18.192;2024-01-30T14:30:08;9.30;;;6.40;;
76795;SDS011;65745;50.278;18.192;2024-01-30T14:32:42;9.60;;;6.90;;
76795;SDS011;65745;50.278;18.192;2024-01-30T14:35:16;7.30;;;6.20;;
76795;SDS011;65745;50.278;18.192;2024-01-30T14:37:49;7.90;;;6.00;;
76795;SDS011;65745;50.278;18.192;2024-01-30T14:40:22;9.30;;;5.90;;
76795;SDS011;65745;50.278;18.192;2024-01-30T14:42:54;7.70;;;6.50;;
76795;SDS011;65745;50.278;18.192;2024-01-30T14:45:28;9.20;;;6.40;;
76795;SDS011;65745;50.278;18.192;2024-01-30T14:48:01;8.40;;;6.00;;
76795;SDS011;65745;50.278;18.192;2024-01-30T14:50:34;8.40;;;6.00;;
76795;SDS011;65745;50.278;18.192;2024-01-30T14:53:06;7.90;;;6.20;;
76795;SDS011;65745;50.278;18.192;2024-01-30T14:55:38;9.00;;;6.20;;
76795;SDS011;65745;50.278;18.192;2024-01-30T14:58:10;7.10;;;5.80;;
76795;SDS011;65745;50.278;18.192;2024-01-30T15:00:42;8.50;;;6.10;;